sensor_id;sensor_type;location;lat;lon;timestamp;pressure;altitude;pressure_sealevel;temperature;humidity
46642;BME280;32370;41.864;-88.124;2023-04-06T00:01:16;98820.06;;;4.25;75.45
46642;BME280;32370;41.864;-88.124;2023-04-06T00:03:44;98831.69;;;4.41;75.35
46642;BME280;32370;41.864;-88.124;2023-04-06T00:06:12;98836.17;;;4.38;75.79
46642;BME280;32370;41.864;-88.124;2023-04-06T00:08:40;98831.70;;;4.35;76.72
46642;BME280;32370;41.864;-88.124;2023-04-06T00:11:08;98839.35;;;3.74;75.18
46642;BME280;32370;41.864;-88.124;2023-04-06T00:13:35;98858.27;;;3.93;76.42
46642;BME280;32370;41.864;-88.124;2023-04-06T00:16:04;98859.83;;;3.97;76.78
46642;BME280;32370;41.864;-88.124;2023-04-06T00:18:32;98863.27;;;3.79;76.56
46642;BME280;32370;41.864;-88.124;2023-04-06T00:21:00;98866.54;;;3.78;77.55
46642;BME280;32370;41.864;-88.124;2023-04-06T00:23:28;98867.26;;;3.60;78.45
46642;BME280;32370;41.864;-88.124;2023-04-06T00:25:56;98869.71;;;3.43;78.67
46642;BME280;32370;41.864;-88.124;2023-04-06T00:28:24;98869.50;;;3.51;79.23
46642;BME280;32370;41.864;-88.124;2023-04-06T00:30:52;98872.62;;;3.35;79.95
46642;BME280;32370;41.864;-88.124;2023-04-06T00:33:20;98874.83;;;3.43;78.69
46642;BME280;32370;41.864;-88.124;2023-04-06T00:35:48;98893.98;;;3.22;76.99
46642;BME280;32370;41.864;-88.124;2023-04-06T00:38:16;98899.11;;;3.11;75.97
46642;BME280;32370;41.864;-88.124;2023-04-06T00:40:44;98910.83;;;2.90;77.36
46642;BME280;32370;41.864;-88.124;2023-04-06T00:43:12;98915.29;;;2.80;78.00
46642;BME280;32370;41.864;-88.124;2023-04-06T00:45:41;98916.14;;;3.08;78.87
46642;BME280;32370;41.864;-88.124;2023-04-06T00:48:11;98919.53;;;3.01;78.83
46642;BME280;32370;41.864;-88.124;2023-04-06T00:50:38;98924.47;;;2.99;77.90
46642;BME280;32370;41.864;-88.124;2023-04-06T00:53:06;98919.70;;;2.73;77.71
46642;BME280;32370;41.864;-88.124;2023-04-06T00:55:34;98922.29;;;2.74;78.72
46642;BME280;32370;41.864;-88.124;2023-04-06T00:58:02;98920.02;;;2.67;78.91
46642;BME280;32370;41.864;-88.124;2023-04-06T01:00:30;98921.67;;;2.57;79.39
46642;BME280;32370;41.864;-88.124;2023-04-06T01:02:59;98921.91;;;2.45;81.78
46642;BME280;32370;41.864;-88.124;2023-04-06T01:05:27;98926.15;;;2.62;80.35
46642;BME280;32370;41.864;-88.124;2023-04-06T01:07:55;98928.79;;;2.60;80.84
46642;BME280;32370;41.864;-88.124;2023-04-06T01:10:24;98932.16;;;2.73;80.85
46642;BME280;32370;41.864;-88.124;2023-04-06T01:12:52;98933.23;;;2.50;80.35
46642;BME280;32370;41.864;-88.124;2023-04-06T01:15:21;98946.32;;;2.65;79.50
46642;BME280;32370;41.864;-88.124;2023-04-06T01:17:49;98945.39;;;2.65;79.23
46642;BME280;32370;41.864;-88.124;2023-04-06T01:20:17;98956.48;;;2.78;78.52
46642;BME280;32370;41.864;-88.124;2023-04-06T01:22:45;98965.49;;;2.38;80.24
46642;BME280;32370;41.864;-88.124;2023-04-06T01:25:13;98968.94;;;2.40;80.04
46642;BME280;32370;41.864;-88.124;2023-04-06T01:27:41;98974.24;;;2.26;78.60
46642;BME280;32370;41.864;-88.124;2023-04-06T01:30:09;98987.30;;;2.52;79.70
46642;BME280;32370;41.864;-88.124;2023-04-06T01:32:38;98994.18;;;2.43;78.46
46642;BME280;32370;41.864;-88.124;2023-04-06T01:35:07;98996.19;;;2.68;79.14
46642;BME280;32370;41.864;-88.124;2023-04-06T01:37:35;99004.68;;;2.33;79.23
46642;BME280;32370;41.864;-88.124;2023-04-06T01:40:04;99005.30;;;2.43;77.56
46642;BME280;32370;41.864;-88.124;2023-04-06T01:42:32;99029.96;;;2.54;79.33
46642;BME280;32370;41.864;-88.124;2023-04-06T01:45:00;99030.54;;;2.69;78.33
46642;BME280;32370;41.864;-88.124;2023-04-06T01:47:28;99041.67;;;2.19;79.11
46642;BME280;32370;41.864;-88.124;2023-04-06T01:49:56;99044.76;;;2.25;80.36
46642;BME280;32370;41.864;-88.124;2023-04-06T01:52:24;99058.68;;;2.13;79.88
46642;BME280;32370;41.864;-88.124;2023-04-06T01:54:52;99070.30;;;2.05;80.04
46642;BME280;32370;41.864;-88.124;2023-04-06T01:57:20;99072.09;;;2.40;79.49
46642;BME280;32370;41.864;-88.124;2023-04-06T01:59:48;99071.02;;;2.81;79.16
46642;BME280;32370;41.864;-88.124;2023-04-06T02:02:15;99085.68;;;2.80;79.17
46642;BME280;32370;41.864;-88.124;2023-04-06T02:04:43;99087.86;;;2.48;79.92
46642;BME280;32370;41.864;-88.124;2023-04-06T02:07:11;99080.08;;;2.42;80.41
46642;BME280;32370;41.864;-88.124;2023-04-06T02:09:39;99087.48;;;2.46;79.91
46642;BME280;32370;41.864;-88.124;2023-04-06T02:12:07;99105.87;;;2.49;80.25
46642;BME280;32370;41.864;-88.124;2023-04-06T02:14:35;99115.02;;;2.59;79.69
46642;BME280;32370;41.864;-88.124;2023-04-06T02:17:03;99120.64;;;2.32;79.10
46642;BME280;32370;41.864;-88.124;2023-04-06T02:19:31;99123.93;;;2.19;80.00
46642;BME280;32370;41.864;-88.124;2023-04-06T02:21:59;99129.25;;;2.28;80.20
46642;BME280;32370;41.864;-88.124;2023-04-06T02:24:27;99130.45;;;2.07;80.41
46642;BME280;32370;41.864;-88.124;2023-04-06T02:26:55;99139.06;;;2.62;80.01
46642;BME280;32370;41.864;-88.124;2023-04-06T02:29:23;99147.20;;;2.41;80.21
46642;BME280;32370;41.864;-88.124;2023-04-06T02:31:51;99157.41;;;2.20;80.65
46642;BME280;32370;41.864;-88.124;2023-04-06T02:34:19;99166.92;;;2.25;80.47
46642;BME280;32370;41.864;-88.124;2023-04-06T02:36:48;99169.73;;;1.74;81.83
46642;BME280;32370;41.864;-88.124;2023-04-06T02:39:15;99175.13;;;1.75;82.29
46642;BME280;32370;41.864;-88.124;2023-04-06T02:41:43;99178.03;;;2.04;81.46
46642;BME280;32370;41.864;-88.124;2023-04-06T02:44:11;99186.50;;;2.16;81.12
46642;BME280;32370;41.864;-88.124;2023-04-06T02:46:39;99184.81;;;2.13;80.27
46642;BME280;32370;41.864;-88.124;2023-04-06T02:49:07;99190.37;;;1.93;81.49
46642;BME280;32370;41.864;-88.124;2023-04-06T02:51:35;99196.34;;;1.73;81.89
46642;BME280;32370;41.864;-88.124;2023-04-06T02:54:03;99206.60;;;1.86;81.89
46642;BME280;32370;41.864;-88.124;2023-04-06T02:56:31;99218.13;;;1.68;80.94
46642;BME280;32370;41.864;-88.124;2023-04-06T02:58:59;99223.10;;;1.34;81.30
46642;BME280;32370;41.864;-88.124;2023-04-06T03:01:27;99221.72;;;1.14;81.99
46642;BME280;32370;41.864;-88.124;2023-04-06T03:03:55;99230.16;;;1.70;82.16
46642;BME280;32370;41.864;-88.124;2023-04-06T03:06:23;99231.28;;;1.90;81.72
46642;BME280;32370;41.864;-88.124;2023-04-06T03:08:51;99234.87;;;1.18;81.99
46642;BME280;32370;41.864;-88.124;2023-04-06T03:11:19;99243.96;;;1.16;82.99
46642;BME280;32370;41.864;-88.124;2023-04-06T03:13:47;99253.40;;;1.49;81.83
46642;BME280;32370;41.864;-88.124;2023-04-06T03:16:14;99252.93;;;1.88;81.07
46642;BME280;32370;41.864;-88.124;2023-04-06T03:18:42;99259.36;;;1.83;81.34
46642;BME280;32370;41.864;-88.124;2023-04-06T03:21:10;99267.21;;;1.66;81.71
46642;BME280;32370;41.864;-88.124;2023-04-06T03:23:38;99270.54;;;1.36;80.86
46642;BME280;32370;41.864;-88.124;2023-04-06T03:26:06;99279.72;;;1.69;81.11
46642;BME280;32370;41.864;-88.124;2023-04-06T03:28:34;99284.53;;;1.78;81.49
46642;BME280;32370;41.864;-88.124;2023-04-06T03:31:10;99284.80;;;1.36;81.66
46642;BME280;32370;41.864;-88.124;2023-04-06T03:33:38;99285.53;;;1.33;81.70
46642;BME280;32370;41.864;-88.124;2023-04-06T03:36:07;99289.15;;;1.91;81.03
46642;BME280;32370;41.864;-88.124;2023-04-06T03:38:35;99291.35;;;1.62;81.07
46642;BME280;32370;41.864;-88.124;2023-04-06T03:41:03;99299.30;;;1.53;80.12
46642;BME280;32370;41.864;-88.124;2023-04-06T03:43:31;99302.06;;;1.42;80.47
46642;BME280;32370;41.864;-88.124;2023-04-06T03:45:59;99303.86;;;1.97;79.58
46642;BME280;32370;41.864;-88.124;2023-04-06T03:48:27;99312.50;;;1.42;79.65
46642;BME280;32370;41.864;-88.124;2023-04-06T03:50:55;99318.26;;;1.19;80.03
46642;BME280;32370;41.864;-88.124;2023-04-06T03:53:23;99322.88;;;1.72;78.90
46642;BME280;32370;41.864;-88.124;2023-04-06T03:55:51;99324.61;;;1.36;77.96
46642;BME280;32370;41.864;-88.124;2023-04-06T03:58:19;99328.07;;;1.68;78.94
46642;BME280;32370;41.864;-88.124;2023-04-06T04:00:47;99334.34;;;1.23;78.04
46642;BME280;32370;41.864;-88.124;2023-04-06T04:03:15;99338.41;;;1.40;78.77
46642;BME280;32370;41.864;-88.124;2023-04-06T04:05:43;99342.67;;;1.51;78.17
46642;BME280;32370;41.864;-88.124;2023-04-06T04:08:12;99352.26;;;1.71;77.66
46642;BME280;32370;41.864;-88.124;2023-04-06T04:10:40;99357.32;;;1.78;76.93
46642;BME280;32370;41.864;-88.124;2023-04-06T04:13:07;99367.55;;;1.84;76.72
46642;BME280;32370;41.864;-88.124;2023-04-06T04:15:35;99376.08;;;2.08;76.12
46642;BME280;32370;41.864;-88.124;2023-04-06T04:18:03;99379.62;;;1.84;76.76
46642;BME280;32370;41.864;-88.124;2023-04-06T04:20:31;99381.67;;;1.92;76.43
46642;BME280;32370;41.864;-88.124;2023-04-06T04:22:59;99380.64;;;1.97;75.99
46642;BME280;32370;41.864;-88.124;2023-04-06T04:25:27;99380.61;;;1.65;76.22
46642;BME280;32370;41.864;-88.124;2023-04-06T04:27:55;99381.12;;;1.25;78.29
46642;BME280;32370;41.864;-88.124;2023-04-06T04:30:23;99388.60;;;1.82;76.93
46642;BME280;32370;41.864;-88.124;2023-04-06T04:32:51;99393.26;;;1.78;76.88
46642;BME280;32370;41.864;-88.124;2023-04-06T04:35:19;99395.00;;;2.01;76.38
46642;BME280;32370;41.864;-88.124;2023-04-06T04:37:48;99392.83;;;1.74;77.13
46642;BME280;32370;41.864;-88.124;2023-04-06T04:40:17;99398.57;;;1.56;77.48
46642;BME280;32370;41.864;-88.124;2023-04-06T04:42:45;99398.03;;;1.55;78.25
46642;BME280;32370;41.864;-88.124;2023-04-06T04:45:13;99403.61;;;1.72;77.77
46642;BME280;32370;41.864;-88.124;2023-04-06T04:47:40;99399.86;;;1.61;77.13
46642;BME280;32370;41.864;-88.124;2023-04-06T04:50:09;99399.58;;;1.67;77.60
46642;BME280;32370;41.864;-88.124;2023-04-06T04:52:37;99397.12;;;1.19;77.48
46642;BME280;32370;41.864;-88.124;2023-04-06T04:55:06;99397.80;;;1.47;77.63
46642;BME280;32370;41.864;-88.124;2023-04-06T04:57:34;99400.84;;;1.44;77.48
46642;BME280;32370;41.864;-88.124;2023-04-06T05:00:02;99408.21;;;1.31;76.56
46642;BME280;32370;41.864;-88.124;2023-04-06T05:02:31;99401.09;;;1.47;77.43
46642;BME280;32370;41.864;-88.124;2023-04-06T05:04:59;99403.31;;;1.56;76.92
46642;BME280;32370;41.864;-88.124;2023-04-06T05:07:27;99405.51;;;1.61;76.01
46642;BME280;32370;41.864;-88.124;2023-04-06T05:09:55;99404.51;;;1.64;76.44
46642;BME280;32370;41.864;-88.124;2023-04-06T05:12:23;99403.88;;;1.41;76.79
46642;BME280;32370;41.864;-88.124;2023-04-06T05:14:51;99398.32;;;1.45;76.62
46642;BME280;32370;41.864;-88.124;2023-04-06T05:17:19;99402.48;;;1.47;76.12
46642;BME280;32370;41.864;-88.124;2023-04-06T05:19:47;99402.17;;;1.30;76.32
46642;BME280;32370;41.864;-88.124;2023-04-06T05:22:15;99408.44;;;1.09;76.58
46642;BME280;32370;41.864;-88.124;2023-04-06T05:24:42;99413.07;;;1.38;76.10
46642;BME280;32370;41.864;-88.124;2023-04-06T05:27:11;99417.75;;;1.31;75.75
46642;BME280;32370;41.864;-88.124;2023-04-06T05:29:38;99419.12;;;1.56;75.37
46642;BME280;32370;41.864;-88.124;2023-04-06T05:32:07;99420.30;;;1.34;75.55
46642;BME280;32370;41.864;-88.124;2023-04-06T05:34:34;99423.46;;;1.48;75.55
46642;BME280;32370;41.864;-88.124;2023-04-06T05:37:02;99421.03;;;1.19;75.64
46642;BME280;32370;41.864;-88.124;2023-04-06T05:39:30;99424.60;;;1.05;74.72
46642;BME280;32370;41.864;-88.124;2023-04-06T05:42:03;99436.45;;;1.44;75.47
46642;BME280;32370;41.864;-88.124;2023-04-06T05:44:31;99439.95;;;1.44;75.02
46642;BME280;32370;41.864;-88.124;2023-04-06T05:46:59;99444.82;;;1.41;74.80
46642;BME280;32370;41.864;-88.124;2023-04-06T05:49:27;99446.00;;;0.80;75.36
46642;BME280;32370;41.864;-88.124;2023-04-06T05:51:55;99446.83;;;0.98;75.45
46642;BME280;32370;41.864;-88.124;2023-04-06T05:54:23;99450.40;;;1.33;74.98
46642;BME280;32370;41.864;-88.124;2023-04-06T05:56:51;99453.97;;;0.41;76.41
46642;BME280;32370;41.864;-88.124;2023-04-06T05:59:19;99449.06;;;1.02;76.17
46642;BME280;32370;41.864;-88.124;2023-04-06T06:01:47;99443.69;;;1.03;75.99
46642;BME280;32370;41.864;-88.124;2023-04-06T06:04:15;99450.83;;;1.17;75.95
46642;BME280;32370;41.864;-88.124;2023-04-06T06:06:43;99452.05;;;1.20;76.10
46642;BME280;32370;41.864;-88.124;2023-04-06T06:09:11;99452.27;;;1.09;75.97
46642;BME280;32370;41.864;-88.124;2023-04-06T06:11:39;99447.14;;;1.30;75.38
46642;BME280;32370;41.864;-88.124;2023-04-06T06:14:07;99449.18;;;0.49;76.05
46642;BME280;32370;41.864;-88.124;2023-04-06T06:16:35;99449.81;;;1.33;75.92
46642;BME280;32370;41.864;-88.124;2023-04-06T06:19:03;99444.90;;;1.21;76.12
46642;BME280;32370;41.864;-88.124;2023-04-06T06:21:31;99452.61;;;1.07;75.90
46642;BME280;32370;41.864;-88.124;2023-04-06T06:23:59;99454.56;;;0.82;77.49
46642;BME280;32370;41.864;-88.124;2023-04-06T06:26:27;99451.31;;;0.76;77.66
46642;BME280;32370;41.864;-88.124;2023-04-06T06:28:55;99445.18;;;0.84;78.30
46642;BME280;32370;41.864;-88.124;2023-04-06T06:31:23;99445.17;;;0.75;78.01
46642;BME280;32370;41.864;-88.124;2023-04-06T06:33:51;99445.10;;;0.76;77.41
46642;BME280;32370;41.864;-88.124;2023-04-06T06:36:19;99449.35;;;0.93;77.41
46642;BME280;32370;41.864;-88.124;2023-04-06T06:38:47;99438.31;;;0.98;77.15
46642;BME280;32370;41.864;-88.124;2023-04-06T06:41:15;99433.97;;;0.87;78.05
46642;BME280;32370;41.864;-88.124;2023-04-06T06:43:44;99425.69;;;0.68;78.91
46642;BME280;32370;41.864;-88.124;2023-04-06T06:46:11;99428.68;;;0.25;79.74
46642;BME280;32370;41.864;-88.124;2023-04-06T06:48:39;99424.35;;;0.45;78.81
46642;BME280;32370;41.864;-88.124;2023-04-06T06:51:07;99416.03;;;-0.07;79.63
46642;BME280;32370;41.864;-88.124;2023-04-06T06:53:35;99415.63;;;-0.20;80.90
46642;BME280;32370;41.864;-88.124;2023-04-06T06:56:03;99415.53;;;0.24;81.11
46642;BME280;32370;41.864;-88.124;2023-04-06T06:58:31;99418.92;;;-0.04;81.00
46642;BME280;32370;41.864;-88.124;2023-04-06T07:01:00;99411.83;;;0.24;80.95
46642;BME280;32370;41.864;-88.124;2023-04-06T07:03:27;99422.16;;;-0.19;80.09
46642;BME280;32370;41.864;-88.124;2023-04-06T07:05:56;99418.50;;;0.00;80.42
46642;BME280;32370;41.864;-88.124;2023-04-06T07:08:24;99419.76;;;0.10;80.74
46642;BME280;32370;41.864;-88.124;2023-04-06T07:10:53;99417.98;;;-0.18;80.65
46642;BME280;32370;41.864;-88.124;2023-04-06T07:13:21;99424.59;;;-0.86;80.92
46642;BME280;32370;41.864;-88.124;2023-04-06T07:15:49;99422.22;;;-0.03;80.60
46642;BME280;32370;41.864;-88.124;2023-04-06T07:18:17;99424.68;;;-0.49;80.84
46642;BME280;32370;41.864;-88.124;2023-04-06T07:20:46;99424.26;;;-0.53;81.46
46642;BME280;32370;41.864;-88.124;2023-04-06T07:23:13;99417.03;;;-0.74;81.22
46642;BME280;32370;41.864;-88.124;2023-04-06T07:25:42;99414.90;;;-0.47;81.72
46642;BME280;32370;41.864;-88.124;2023-04-06T07:28:10;99416.87;;;-0.69;82.74
46642;BME280;32370;41.864;-88.124;2023-04-06T07:30:38;99422.76;;;-0.63;82.32
46642;BME280;32370;41.864;-88.124;2023-04-06T07:33:05;99412.44;;;-0.89;83.28
46642;BME280;32370;41.864;-88.124;2023-04-06T07:35:33;99411.98;;;-0.71;83.17
46642;BME280;32370;41.864;-88.124;2023-04-06T07:38:02;99409.46;;;-0.84;83.00
46642;BME280;32370;41.864;-88.124;2023-04-06T07:40:30;99405.13;;;-0.77;82.79
46642;BME280;32370;41.864;-88.124;2023-04-06T07:42:57;99397.21;;;-0.55;82.46
46642;BME280;32370;41.864;-88.124;2023-04-06T07:45:26;99392.44;;;-0.68;81.51
46642;BME280;32370;41.864;-88.124;2023-04-06T07:47:54;99395.40;;;-1.01;80.81
46642;BME280;32370;41.864;-88.124;2023-04-06T07:50:22;99392.82;;;-0.30;80.80
46642;BME280;32370;41.864;-88.124;2023-04-06T07:52:50;99403.94;;;-0.60;79.63
46642;BME280;32370;41.864;-88.124;2023-04-06T07:55:18;99402.43;;;-0.29;80.12
46642;BME280;32370;41.864;-88.124;2023-04-06T07:57:46;99410.11;;;-0.78;80.84
46642;BME280;32370;41.864;-88.124;2023-04-06T08:00:15;99411.16;;;-0.37;79.45
46642;BME280;32370;41.864;-88.124;2023-04-06T08:02:43;99413.40;;;-0.45;80.68
46642;BME280;32370;41.864;-88.124;2023-04-06T08:05:11;99413.42;;;-0.43;81.03
46642;BME280;32370;41.864;-88.124;2023-04-06T08:07:39;99413.44;;;-0.62;80.61
46642;BME280;32370;41.864;-88.124;2023-04-06T08:10:07;99411.90;;;-0.23;80.54
46642;BME280;32370;41.864;-88.124;2023-04-06T08:12:36;99413.21;;;-0.40;80.66
46642;BME280;32370;41.864;-88.124;2023-04-06T08:15:05;99416.40;;;-0.29;80.95
46642;BME280;32370;41.864;-88.124;2023-04-06T08:17:33;99409.11;;;-0.30;80.36
46642;BME280;32370;41.864;-88.124;2023-04-06T08:20:01;99402.06;;;-0.41;81.07
46642;BME280;32370;41.864;-88.124;2023-04-06T08:22:29;99397.32;;;-0.42;80.26
46642;BME280;32370;41.864;-88.124;2023-04-06T08:24:57;99407.55;;;-0.46;80.87
46642;BME280;32370;41.864;-88.124;2023-04-06T08:27:25;99417.39;;;-0.70;80.12
46642;BME280;32370;41.864;-88.124;2023-04-06T08:29:53;99428.39;;;-0.47;80.55
46642;BME280;32370;41.864;-88.124;2023-04-06T08:32:21;99452.30;;;-0.85;80.83
46642;BME280;32370;41.864;-88.124;2023-04-06T08:34:49;99468.36;;;-0.90;81.44
46642;BME280;32370;41.864;-88.124;2023-04-06T08:37:17;99476.28;;;-0.93;80.83
46642;BME280;32370;41.864;-88.124;2023-04-06T08:39:45;99482.59;;;-1.39;82.25
46642;BME280;32370;41.864;-88.124;2023-04-06T08:42:19;99484.06;;;-0.94;83.01
46642;BME280;32370;41.864;-88.124;2023-04-06T08:44:49;99483.98;;;-0.93;81.64
46642;BME280;32370;41.864;-88.124;2023-04-06T08:47:18;99485.85;;;-1.21;82.56
46642;BME280;32370;41.864;-88.124;2023-04-06T08:49:46;99487.26;;;-1.17;83.09
46642;BME280;32370;41.864;-88.124;2023-04-06T08:52:17;99490.02;;;-1.22;82.44
46642;BME280;32370;41.864;-88.124;2023-04-06T08:54:45;99492.26;;;-1.02;81.98
46642;BME280;32370;41.864;-88.124;2023-04-06T08:57:14;99496.01;;;-1.26;82.40
46642;BME280;32370;41.864;-88.124;2023-04-06T08:59:43;99494.90;;;-1.04;81.25
46642;BME280;32370;41.864;-88.124;2023-04-06T09:02:16;99492.64;;;-1.28;81.73
46642;BME280;32370;41.864;-88.124;2023-04-06T09:04:47;99491.36;;;-1.39;79.65
46642;BME280;32370;41.864;-88.124;2023-04-06T09:07:16;99502.52;;;-1.28;79.17
46642;BME280;32370;41.864;-88.124;2023-04-06T09:09:44;99517.37;;;-1.05;78.21
46642;BME280;32370;41.864;-88.124;2023-04-06T09:12:22;99519.60;;;-1.20;78.62
46642;BME280;32370;41.864;-88.124;2023-04-06T09:14:50;99519.99;;;-1.24;78.22
46642;BME280;32370;41.864;-88.124;2023-04-06T09:17:22;99519.40;;;-1.16;77.17
46642;BME280;32370;41.864;-88.124;2023-04-06T09:19:51;99518.50;;;-1.24;77.21
46642;BME280;32370;41.864;-88.124;2023-04-06T09:22:19;99525.12;;;-1.12;78.27
46642;BME280;32370;41.864;-88.124;2023-04-06T09:24:49;99538.55;;;-1.56;77.67
46642;BME280;32370;41.864;-88.124;2023-04-06T09:27:17;99544.43;;;-1.29;77.04
46642;BME280;32370;41.864;-88.124;2023-04-06T09:29:45;99550.05;;;-1.29;76.56
46642;BME280;32370;41.864;-88.124;2023-04-06T09:32:13;99551.55;;;-1.40;77.08
46642;BME280;32370;41.864;-88.124;2023-04-06T09:34:41;99544.88;;;-1.44;76.93
46642;BME280;32370;41.864;-88.124;2023-04-06T09:37:13;99548.74;;;-1.57;75.92
46642;BME280;32370;41.864;-88.124;2023-04-06T09:39:41;99549.46;;;-1.32;76.09
46642;BME280;32370;41.864;-88.124;2023-04-06T09:42:09;99551.39;;;-1.31;76.19
46642;BME280;32370;41.864;-88.124;2023-04-06T09:44:37;99550.98;;;-1.70;76.01
46642;BME280;32370;41.864;-88.124;2023-04-06T09:47:06;99560.16;;;-1.64;76.57
46642;BME280;32370;41.864;-88.124;2023-04-06T09:49:36;99562.78;;;-1.77;77.24
46642;BME280;32370;41.864;-88.124;2023-04-06T09:52:04;99564.34;;;-2.04;77.38
46642;BME280;32370;41.864;-88.124;2023-04-06T09:54:35;99561.55;;;-2.04;77.87
46642;BME280;32370;41.864;-88.124;2023-04-06T09:57:10;99565.44;;;-2.30;77.39
46642;BME280;32370;41.864;-88.124;2023-04-06T09:59:43;99576.32;;;-1.95;76.73
46642;BME280;32370;41.864;-88.124;2023-04-06T10:02:17;99588.68;;;-2.14;76.57
46642;BME280;32370;41.864;-88.124;2023-04-06T10:04:53;99601.46;;;-2.20;76.56
46642;BME280;32370;41.864;-88.124;2023-04-06T10:07:24;99612.93;;;-1.99;76.24
46642;BME280;32370;41.864;-88.124;2023-04-06T10:09:54;99613.78;;;-2.19;75.88
46642;BME280;32370;41.864;-88.124;2023-04-06T10:12:22;99607.80;;;-2.26;76.27
46642;BME280;32370;41.864;-88.124;2023-04-06T10:14:51;99609.59;;;-2.18;76.95
46642;BME280;32370;41.864;-88.124;2023-04-06T10:17:19;99614.10;;;-2.44;76.46
46642;BME280;32370;41.864;-88.124;2023-04-06T10:19:52;99626.85;;;-1.94;77.07
46642;BME280;32370;41.864;-88.124;2023-04-06T10:22:26;99635.20;;;-2.18;76.18
46642;BME280;32370;41.864;-88.124;2023-04-06T10:24:56;99640.84;;;-1.78;75.84
46642;BME280;32370;41.864;-88.124;2023-04-06T10:27:33;99647.33;;;-2.05;76.98
46642;BME280;32370;41.864;-88.124;2023-04-06T10:30:03;99654.30;;;-2.33;76.20
46642;BME280;32370;41.864;-88.124;2023-04-06T10:32:38;99647.59;;;-2.53;77.25
46642;BME280;32370;41.864;-88.124;2023-04-06T10:35:08;99653.70;;;-2.40;76.45
46642;BME280;32370;41.864;-88.124;2023-04-06T10:38:02;99653.82;;;-2.25;77.76
46642;BME280;32370;41.864;-88.124;2023-04-06T10:40:31;99669.81;;;-2.42;76.58
46642;BME280;32370;41.864;-88.124;2023-04-06T10:43:08;99679.68;;;-2.54;76.39
46642;BME280;32370;41.864;-88.124;2023-04-06T10:45:36;99688.65;;;-2.39;76.19
46642;BME280;32370;41.864;-88.124;2023-04-06T10:48:19;99695.20;;;-2.36;77.27
46642;BME280;32370;41.864;-88.124;2023-04-06T10:50:50;99708.63;;;-2.38;75.79
46642;BME280;32370;41.864;-88.124;2023-04-06T10:53:22;99715.70;;;-2.67;76.12
46642;BME280;32370;41.864;-88.124;2023-04-06T10:55:52;99721.76;;;-2.55;76.74
46642;BME280;32370;41.864;-88.124;2023-04-06T10:58:23;99716.81;;;-2.49;76.19
46642;BME280;32370;41.864;-88.124;2023-04-06T11:00:52;99720.31;;;-2.55;75.28
46642;BME280;32370;41.864;-88.124;2023-04-06T11:03:21;99721.87;;;-2.61;75.92
46642;BME280;32370;41.864;-88.124;2023-04-06T11:05:50;99728.75;;;-2.51;76.05
46642;BME280;32370;41.864;-88.124;2023-04-06T11:08:28;99738.20;;;-2.76;75.67
46642;BME280;32370;41.864;-88.124;2023-04-06T11:11:13;99737.84;;;-2.55;75.52
46642;BME280;32370;41.864;-88.124;2023-04-06T11:13:42;99744.01;;;-2.90;76.22
46642;BME280;32370;41.864;-88.124;2023-04-06T11:16:16;99747.30;;;-2.74;75.59
46642;BME280;32370;41.864;-88.124;2023-04-06T11:18:53;99750.01;;;-2.88;75.44
46642;BME280;32370;41.864;-88.124;2023-04-06T11:21:33;99752.54;;;-3.02;77.29
46642;BME280;32370;41.864;-88.124;2023-04-06T11:24:07;99744.90;;;-2.65;77.69
46642;BME280;32370;41.864;-88.124;2023-04-06T11:26:38;99750.07;;;-2.94;76.37
46642;BME280;32370;41.864;-88.124;2023-04-06T11:29:07;99749.25;;;-2.84;77.38
46642;BME280;32370;41.864;-88.124;2023-04-06T11:31:40;99750.91;;;-2.96;78.25
46642;BME280;32370;41.864;-88.124;2023-04-06T11:34:12;99756.19;;;-2.79;77.38
46642;BME280;32370;41.864;-88.124;2023-04-06T11:36:42;99759.20;;;-2.75;76.78
46642;BME280;32370;41.864;-88.124;2023-04-06T11:39:12;99762.61;;;-3.44;76.79
46642;BME280;32370;41.864;-88.124;2023-04-06T11:41:40;99764.07;;;-2.96;77.22
46642;BME280;32370;41.864;-88.124;2023-04-06T11:44:08;99767.11;;;-2.71;77.31
46642;BME280;32370;41.864;-88.124;2023-04-06T11:46:36;99780.49;;;-2.75;76.86
46642;BME280;32370;41.864;-88.124;2023-04-06T11:49:04;99786.15;;;-2.80;76.85
46642;BME280;32370;41.864;-88.124;2023-04-06T11:51:36;99790.46;;;-2.99;75.77
46642;BME280;32370;41.864;-88.124;2023-04-06T11:54:04;99797.07;;;-2.31;75.71
46642;BME280;32370;41.864;-88.124;2023-04-06T11:56:32;99802.00;;;-2.87;75.84
46642;BME280;32370;41.864;-88.124;2023-04-06T11:59:00;99813.86;;;-2.89;75.75
46642;BME280;32370;41.864;-88.124;2023-04-06T12:01:29;99818.92;;;-3.00;76.24
46642;BME280;32370;41.864;-88.124;2023-04-06T12:03:57;99823.05;;;-3.00;76.41
46642;BME280;32370;41.864;-88.124;2023-04-06T12:06:25;99834.92;;;-3.08;76.56
46642;BME280;32370;41.864;-88.124;2023-04-06T12:08:53;99838.09;;;-2.60;77.03
46642;BME280;32370;41.864;-88.124;2023-04-06T12:11:21;99839.67;;;-2.73;77.70
46642;BME280;32370;41.864;-88.124;2023-04-06T12:13:49;99845.89;;;-2.74;77.21
46642;BME280;32370;41.864;-88.124;2023-04-06T12:16:17;99859.96;;;-2.34;77.88
46642;BME280;32370;41.864;-88.124;2023-04-06T12:18:45;99860.94;;;-2.11;77.49
46642;BME280;32370;41.864;-88.124;2023-04-06T12:21:13;99866.79;;;-1.99;77.35
46642;BME280;32370;41.864;-88.124;2023-04-06T12:23:41;99871.81;;;-2.28;74.71
46642;BME280;32370;41.864;-88.124;2023-04-06T12:26:09;99872.98;;;-2.11;74.25
46642;BME280;32370;41.864;-88.124;2023-04-06T12:28:37;99876.55;;;-2.30;73.13
46642;BME280;32370;41.864;-88.124;2023-04-06T12:31:05;99880.25;;;-1.79;76.03
46642;BME280;32370;41.864;-88.124;2023-04-06T12:33:33;99886.10;;;-1.94;72.65
46642;BME280;32370;41.864;-88.124;2023-04-06T12:36:01;99892.50;;;-1.97;74.48
46642;BME280;32370;41.864;-88.124;2023-04-06T12:38:29;99896.08;;;-1.97;74.86
46642;BME280;32370;41.864;-88.124;2023-04-06T12:40:57;99892.20;;;-1.65;73.81
46642;BME280;32370;41.864;-88.124;2023-04-06T12:43:25;99892.73;;;-1.67;75.38
46642;BME280;32370;41.864;-88.124;2023-04-06T12:45:53;99892.45;;;-1.13;73.99
46642;BME280;32370;41.864;-88.124;2023-04-06T12:48:21;99900.75;;;-1.40;70.93
46642;BME280;32370;41.864;-88.124;2023-04-06T12:50:55;99900.63;;;-1.43;69.23
46642;BME280;32370;41.864;-88.124;2023-04-06T12:53:24;99907.92;;;-1.76;70.85